NCAR-RAP Real-Time Weather Data

Output produced by METARs form (10 April 2020  06:40 UTC)
found at http://weather.rap.ucar.edu/surface/
 
KLSE 100632Z AUTO 28013KT 10SM BKN055 02/M07 A3002 RMK AO2 WSHFT 0612 T00221067
KLSE 100553Z AUTO 32011KT 10SM OVC060 04/M08 A3001 RMK AO2 SLP172 T00391078 10044 20033 400830022 53003
KLSE 100453Z AUTO 31015KT 10SM BKN060 03/M07 A3001 RMK AO2 SLP168 T00331072
KLSE 100353Z AUTO 32017G24KT 10SM CLR 03/M08 A3000 RMK AO2 SLP166 T00331078
KLSE 100253Z AUTO 32014G21KT 10SM SCT060 03/M08 A3000 RMK AO2 SLP168 T00331078 53024
KLSE 100153Z 32015KT 10SM CLR 03/M09 A2998 RMK AO2 PK WND 32026/0101 SLP161 T00331089
KLSE 100053Z 33016G25KT 10SM FEW065 04/M09 A2995 RMK AO2 PK WND 33030/0023 SLP149 T00391089
KLSE 092353Z 31009KT 10SM FEW060 04/M06 A2993 RMK AO2 PK WND 32033/2305 SLP145 60000 T00391056 10083 20033 51030
KLSE 092253Z 31021G28KT 10SM SCT050 06/M06 A2990 RMK AO2 PK WND 32028/2253 SLP134 T00561056
KLSE 092153Z 33022G32KT 10SM FEW045 BKN060 OVC070 04/M05 A2988 RMK AO2 PK WND 32037/2100 SLP128 T00441050
KLSE 092053Z 32022G33KT 10SM SCT060 BKN080 08/M07 A2984 RMK AO2 PK WND 34033/2044 SLP112 60000 T00781067 51015
KLSE 091953Z 29020G27KT 10SM BKN070 BKN090 07/M06 A2983 RMK AO2 PK WND 29029/1929 SLP108 T00721056
KLSE 091853Z 32011G26KT 10SM SCT048 SCT060 BKN070 07/M06 A2981 RMK AO2 PK WND 29032/1823 RAE18 SLP101 P0000 T00721061
KLSE 091753Z 33022G32KT 7SM -RA BKN050 OVC075 05/M06 A2979 RMK AO2 PK WND 32032/1752 RAB50 SLP096 P0000 60000 T00501056 10072 20022 50000
KLSE 091653Z 33013KT 10SM FEW035 FEW085 06/M03 A2981 RMK AO2 PK WND 33033/1619 RAB19E21SNB21E32 SLP099 P0000 T00611033
KLSE 091553Z 34016KT 10SM BKN055 BKN070 05/M05 A2979 RMK AO2 PK WND 31035/1515 SLP093 T00501050
KLSE 091453Z 31016KT 10SM SCT047 BKN060 OVC070 05/M06 A2979 RMK AO2 PK WND 31031/1410 SLP094 T00501056 58009
KLSE 091353Z 29015G24KT 10SM CLR 05/M06 A2982 RMK AO2 PK WND 30027/1316 SLP103 T00501056
KLSE 091253Z 28015G23KT 10SM CLR 03/M05 A2982 RMK AO2 SLP103 T00331050
KLSE 091153Z 28012KT 10SM CLR 02/M05 A2982 RMK AO2 SLP103 70002 T00221050 10061 20022 53001
KLSE 091053Z 29012G19KT 10SM CLR 02/M05 A2981 RMK AO2 SLP101 T00221050
KLSE 090953Z AUTO 29011G21KT 10SM CLR 03/M05 A2981 RMK AO2 SLP097 T00281050
KLSE 090853Z AUTO 28013KT 10SM CLR 03/M04 A2982 RMK AO2 SLP101 T00331044 50004
KLSE 090753Z AUTO 30012G21KT 10SM CLR 04/M04 A2983 RMK AO2 SLP105 T00391044